Time;durP1;ratioP1;P1;durP2;ratioP2;P2;SDS_P1;SDS_P2;PMS_P1;PMS_P2;Temp;Humidity;BMP_temperature;BMP_pressure;BME280_temperature;BME280_humidity;BME280_pressure;Samples;Min_cycle;Max_cycle;Signal;HPM_P1;HPM_P2
2022/10/25 00:01:44;;;;;;;5.72;0.75;;;;;;;12.93;95.88;100541.28;6000350;28;20041;-67
2022/10/25 00:04:39;;;;;;;4.88;0.70;;;;;;;13.02;95.58;100550.94;6000000;28;20031;-67
2022/10/25 00:07:35;;;;;;;2.83;1.07;;;;;;;12.95;95.63;100543.78;6000796;28;20031;-67
2022/10/25 00:10:30;;;;;;;5.30;0.67;;;;;;;12.95;95.82;100560.59;6000439;28;20054;-67
2022/10/25 00:13:25;;;;;;;2.97;0.90;;;;;;;12.95;95.98;100544.63;6000688;28;20142;-67
2022/10/25 00:16:46;;;;;;;2.73;0.80;;;;;;;13.06;95.92;100562.94;6000877;28;20494;-67
2022/10/25 00:19:41;;;;;;;2.55;1.00;;;;;;;12.96;95.52;100546.25;5998696;28;20034;-66
2022/10/25 00:22:37;;;;;;;5.63;0.87;;;;;;;12.96;95.82;100554.25;5999618;28;20089;-67
2022/10/25 00:25:32;;;;;;;1.58;0.60;;;;;;;12.98;96.24;100564.75;6000508;28;20018;-65
2022/10/25 00:28:28;;;;;;;6.57;0.73;;;;;;;12.86;95.98;100558.06;6000170;28;20073;-66
2022/10/25 00:31:23;;;;;;;6.27;0.73;;;;;;;12.93;96.14;100562.59;6000259;28;20026;-66
2022/10/25 00:34:19;;;;;;;4.45;0.60;;;;;;;13.05;95.81;100569.25;6000222;28;20402;-66
2022/10/25 00:37:14;;;;;;;3.73;0.60;;;;;;;13.08;95.85;100566.28;6000096;28;20121;-66
2022/10/25 00:40:10;;;;;;;4.68;0.65;;;;;;;13.11;95.64;100562.44;5999440;28;20360;-66
2022/10/25 00:43:08;;;;;;;4.90;0.85;;;;;;;13.13;95.17;100562.31;5999745;28;20093;-65
2022/10/25 00:46:18;;;;;;;6.13;0.90;;;;;;;13.03;95.90;100549.94;6000092;28;20497;-65
2022/10/25 00:49:17;;;;;;;2.25;0.70;;;;;;;12.92;95.48;100533.47;5998446;28;20030;-68
2022/10/25 00:52:12;;;;;;;2.97;0.70;;;;;;;12.93;96.28;100546.63;5990786;28;20031;-68
2022/10/25 00:55:08;;;;;;;2.60;0.70;;;;;;;12.83;96.34;100545.91;5993827;28;20516;-66
2022/10/25 00:58:08;;;;;;;6.35;0.93;;;;;;;12.99;96.31;100571.75;5999274;28;20501;-65
2022/10/25 01:01:05;;;;;;;1.92;0.82;;;;;;;12.92;96.92;100570.72;5998902;28;20041;-65
2022/10/25 01:04:04;;;;;;;4.28;1.75;;;;;;;12.91;97.02;100577.06;5999557;28;20739;-65
2022/10/25 01:07:00;;;;;;;2.50;1.20;;;;;;;12.83;97.41;100558.38;5998296;28;20049;-66
2022/10/25 01:09:56;;;;;;;2.28;0.65;;;;;;;12.97;97.40;100579.88;5999196;28;20031;-65
2022/10/25 01:12:51;;;;;;;4.57;0.80;;;;;;;12.90;98.08;100568.25;5999153;28;20030;-65
2022/10/25 01:16:05;;;;;;;7.60;0.90;;;;;;;12.99;98.10;100588.53;5998280;28;20382;-68
2022/10/25 01:19:09;;;;;;;4.78;1.00;;;;;;;13.00;98.03;100589.38;5999428;28;20545;-68
2022/10/25 01:22:11;;;;;;;3.65;0.77;;;;;;;13.02;97.91;100572.22;5998700;28;20031;-68
2022/10/25 01:25:12;;;;;;;1.27;0.70;;;;;;;13.10;97.72;100579.41;5997905;28;20462;-67
2022/10/25 01:28:29;;;;;;;5.93;1.77;;;;;;;13.12;98.14;100577.44;5999170;28;20085;-65
2022/10/25 01:31:37;;;;;;;3.05;1.15;;;;;;;13.07;98.01;100577.09;5998456;28;20170;-65
2022/10/25 01:34:40;;;;;;;6.22;1.25;;;;;;;13.13;97.42;100587.06;5999128;28;20161;-67
2022/10/25 01:38:03;;;;;;;5.22;1.63;;;;;;;13.10;97.71;100590.91;5998962;28;20053;-65
2022/10/25 01:41:39;;;;;;;4.75;1.10;;;;;;;13.16;97.76;100591.22;5998050;28;20046;-67
2022/10/25 01:44:57;;;;;;;5.35;1.45;;;;;;;13.16;97.33;100577.91;5997960;28;20031;-65
2022/10/25 01:48:07;;;;;;;4.50;1.00;;;;;;;13.07;97.84;100575.25;5997471;28;20518;-67
2022/10/25 01:51:05;;;;;;;6.03;0.80;;;;;;;13.08;98.23;100592.91;5997005;28;20034;-67
2022/10/25 01:54:01;;;;;;;4.07;0.77;;;;;;;13.08;98.32;100595.56;5996788;28;20062;-67
2022/10/25 01:57:05;;;;;;;1.92;0.70;;;;;;;13.09;98.59;100594.56;5998634;28;20038;-65
2022/10/25 02:00:09;;;;;;;3.28;0.63;;;;;;;13.05;98.33;100601.19;5997195;28;20046;-66
2022/10/25 02:03:26;;;;;;;3.03;0.70;;;;;;;13.06;98.28;100594.03;5998913;28;20041;-65
2022/10/25 02:06:48;;;;;;;3.80;0.85;;;;;;;12.89;98.77;100576.38;5998754;28;20483;-66
2022/10/25 02:09:57;;;;;;;2.42;0.93;;;;;;;12.98;99.13;100592.19;6001863;28;20449;-66
2022/10/25 02:13:23;;;;;;;1.85;0.80;;;;;;;12.99;99.38;100593.84;6001644;28;20038;-68
2022/10/25 02:16:27;;;;;;;0.95;0.65;;;;;;;12.86;99.54;100574.88;6003473;28;20090;-67
2022/10/25 02:19:30;;;;;;;2.58;0.80;;;;;;;12.81;99.39;100590.50;6001293;28;20490;-67
2022/10/25 02:22:28;;;;;;;4.15;0.80;;;;;;;12.73;100.00;100590.47;6002969;28;20031;-67
2022/10/25 02:25:23;;;;;;;3.85;0.80;;;;;;;12.65;100.00;100589.63;6001651;28;20145;-67
2022/10/25 02:28:22;;;;;;;3.30;1.27;;;;;;;12.70;100.00;100597.94;6003584;28;20383;-67
2022/10/25 02:31:19;;;;;;;4.75;1.13;;;;;;;12.71;100.00;100600.47;6001396;28;20266;-67
2022/10/25 02:34:16;;;;;;;3.40;0.88;;;;;;;12.70;100.00;100592.63;6002198;28;20030;-67
2022/10/25 02:37:12;;;;;;;2.15;0.85;;;;;;;12.77;100.00;100596.31;6003235;28;20034;-67
2022/10/25 02:40:08;;;;;;;3.37;1.00;;;;;;;12.77;100.00;100588.34;6002570;28;20475;-67
2022/10/25 02:43:03;;;;;;;5.72;1.33;;;;;;;12.79;100.00;100586.34;6001534;28;20030;-68
2022/10/25 02:45:59;;;;;;;4.20;1.10;;;;;;;12.76;100.00;100587.50;6002754;28;20039;-68
2022/10/25 02:48:54;;;;;;;3.05;1.10;;;;;;;12.72;100.00;100588.00;6002841;28;20065;-68
2022/10/25 02:51:49;;;;;;;2.63;0.90;;;;;;;12.75;100.00;100595.63;6001981;28;20466;-68
2022/10/25 02:54:45;;;;;;;3.43;1.10;;;;;;;12.62;100.00;100592.59;6002878;28;20055;-68
2022/10/25 02:57:40;;;;;;;7.97;1.57;;;;;;;12.54;100.00;100588.09;6002437;28;20050;-68
2022/10/25 03:00:35;;;;;;;2.70;1.30;;;;;;;12.53;100.00;100591.75;6001653;28;20313;-68
2022/10/25 03:03:31;;;;;;;2.53;1.10;;;;;;;12.55;100.00;100605.75;6002519;28;20031;-68
2022/10/25 03:06:26;;;;;;;3.15;1.23;;;;;;;12.49;100.00;100590.41;6000799;28;20038;-68
2022/10/25 03:09:22;;;;;;;5.07;1.40;;;;;;;12.50;100.00;100592.09;6002327;28;20046;-68
2022/10/25 03:12:17;;;;;;;2.28;0.85;;;;;;;12.46;100.00;100588.06;6001736;28;20035;-68
2022/10/25 03:15:12;;;;;;;4.23;1.30;;;;;;;12.52;100.00;100590.94;6001679;28;20045;-68
2022/10/25 03:18:08;;;;;;;5.10;1.53;;;;;;;12.55;100.00;100595.09;6002183;28;20023;-68
2022/10/25 03:21:04;;;;;;;5.80;1.95;;;;;;;12.47;100.00;100597.72;6000306;28;20062;-68
2022/10/25 03:23:59;;;;;;;2.65;1.20;;;;;;;12.54;100.00;100604.06;6002006;28;20038;-68
2022/10/25 03:26:54;;;;;;;6.67;1.40;;;;;;;12.50;100.00;100602.72;6001947;28;20119;-68
2022/10/25 03:29:50;;;;;;;6.67;1.67;;;;;;;12.61;100.00;100625.53;6001325;28;21103;-68
2022/10/25 03:32:45;;;;;;;5.13;1.43;;;;;;;12.57;100.00;100621.53;6001272;28;20069;-68
2022/10/25 03:35:40;;;;;;;2.60;1.10;;;;;;;12.63;100.00;100626.22;6001536;28;20089;-68
2022/10/25 03:38:37;;;;;;;4.25;1.08;;;;;;;12.63;100.00;100619.06;6001895;28;20050;-67
2022/10/25 03:41:34;;;;;;;3.80;1.48;;;;;;;12.65;100.00;100627.72;6001219;28;20077;-67
2022/10/25 03:44:29;;;;;;;4.40;1.60;;;;;;;12.51;100.00;100615.03;6001355;28;20486;-67
2022/10/25 03:47:24;;;;;;;3.17;1.33;;;;;;;12.44;100.00;100612.19;6001287;28;20064;-68
2022/10/25 03:50:20;;;;;;;6.00;2.40;;;;;;;12.51;100.00;100625.66;6001012;28;20148;-68
2022/10/25 03:53:15;;;;;;;7.47;1.95;;;;;;;12.46;100.00;100627.97;6001428;28;20591;-66
2022/10/25 03:56:10;;;;;;;6.47;1.97;;;;;;;12.43;100.00;100637.09;5988367;28;20039;-66
2022/10/25 03:59:06;;;;;;;7.00;1.90;;;;;;;12.45;100.00;100635.13;6000950;28;20278;-67
2022/10/25 04:02:01;;;;;;;6.17;2.20;;;;;;;12.37;100.00;100634.25;6000485;28;20330;-67
2022/10/25 04:04:56;;;;;;;5.40;1.87;;;;;;;12.40;100.00;100637.41;6000730;28;20282;-67
2022/10/25 04:07:52;;;;;;;6.10;1.70;;;;;;;12.44;100.00;100645.94;6001266;28;20289;-67
2022/10/25 04:10:47;;;;;;;4.28;1.80;;;;;;;12.41;100.00;100635.59;6000388;28;20046;-66
2022/10/25 04:13:43;;;;;;;6.13;1.80;;;;;;;12.45;100.00;100647.56;6000619;28;20031;-64
2022/10/25 04:16:38;;;;;;;5.83;2.10;;;;;;;12.41;100.00;100640.91;6000574;28;20114;-67
2022/10/25 04:19:33;;;;;;;5.33;1.90;;;;;;;12.37;100.00;100634.25;6000246;28;20075;-66
2022/10/25 04:22:29;;;;;;;6.93;1.97;;;;;;;12.36;100.00;100624.63;5999897;28;20057;-66
2022/10/25 04:25:25;;;;;;;4.60;1.97;;;;;;;12.48;100.00;100642.78;6000620;28;20278;-66
2022/10/25 04:28:22;;;;;;;6.00;1.83;;;;;;;12.37;100.00;100628.91;6000362;28;20490;-66
2022/10/25 04:31:18;;;;;;;7.35;2.17;;;;;;;12.42;100.00;100637.25;5999743;28;20035;-66
2022/10/25 04:34:13;;;;;;;7.95;2.30;;;;;;;12.41;100.00;100646.25;6000170;28;20196;-66
2022/10/25 04:37:08;;;;;;;6.07;2.17;;;;;;;12.34;100.00;100639.88;5999706;28;20031;-66
2022/10/25 04:40:04;;;;;;;9.20;2.00;;;;;;;12.39;100.00;100642.91;5999403;28;20074;-67
2022/10/25 04:43:01;;;;;;;8.07;2.63;;;;;;;12.44;100.00;100661.88;5999904;28;20101;-66
2022/10/25 04:45:59;;;;;;;8.85;2.63;;;;;;;12.38;100.00;100646.56;5999999;28;20467;-66
2022/10/25 04:48:54;;;;;;;6.90;2.83;;;;;;;12.52;100.00;100661.91;5998432;28;20026;-67
2022/10/25 04:51:50;;;;;;;7.23;2.57;;;;;;;12.49;100.00;100659.56;5999440;28;20077;-66
2022/10/25 04:54:45;;;;;;;10.93;2.97;;;;;;;12.49;100.00;100660.41;5999474;28;20274;-67
2022/10/25 04:57:40;;;;;;;7.20;2.80;;;;;;;12.39;100.00;100653.56;6000087;28;20051;-66
2022/10/25 05:00:37;;;;;;;7.57;3.50;;;;;;;12.38;100.00;100651.88;5999233;28;20027;-66
2022/10/25 05:03:32;;;;;;;6.35;3.08;;;;;;;12.47;100.00;100667.69;5999284;28;20531;-66
2022/10/25 05:06:28;;;;;;;6.63;2.85;;;;;;;12.48;100.00;100663.22;5999750;28;20031;-66
2022/10/25 05:09:23;;;;;;;12.13;3.10;;;;;;;12.45;100.00;100663.53;5998918;28;20062;-66
2022/10/25 05:12:18;;;;;;;8.20;2.77;;;;;;;12.44;100.00;100668.03;5998939;28;20117;-66
2022/10/25 05:15:14;;;;;;;9.63;3.30;;;;;;;12.43;100.00;100669.03;5999619;28;20783;-66
2022/10/25 05:18:09;;;;;;;7.10;2.60;;;;;;;12.42;100.00;100680.63;5999509;28;20262;-67
2022/10/25 05:21:05;;;;;;;7.10;2.60;;;;;;;12.44;100.00;100670.69;5998650;28;20336;-67
2022/10/25 05:24:01;;;;;;;6.13;3.17;;;;;;;12.51;100.00;100678.84;5999225;28;20806;-67
2022/10/25 05:26:56;;;;;;;8.70;3.50;;;;;;;12.51;100.00;100682.34;5998824;28;20033;-66
2022/10/25 05:29:51;;;;;;;9.40;3.50;;;;;;;12.49;100.00;100681.69;5999044;28;20031;-67
2022/10/25 05:32:47;;;;;;;8.37;3.30;;;;;;;12.59;100.00;100680.72;5998433;28;20031;-67
2022/10/25 05:35:42;;;;;;;7.15;2.92;;;;;;;12.58;100.00;100685.22;5998125;28;20091;-66
2022/10/25 05:38:38;;;;;;;8.00;3.20;;;;;;;12.60;100.00;100679.72;5998873;28;20037;-67
2022/10/25 05:41:33;;;;;;;10.05;3.75;;;;;;;12.61;100.00;100690.19;5998704;28;20181;-67
2022/10/25 05:44:28;;;;;;;9.00;3.40;;;;;;;12.68;100.00;100696.56;5998466;28;20073;-66
2022/10/25 05:47:24;;;;;;;12.13;3.13;;;;;;;12.64;100.00;100695.22;5998298;28;20130;-66
2022/10/25 05:50:19;;;;;;;10.03;3.23;;;;;;;12.68;100.00;100707.22;5998364;28;20046;-67
2022/10/25 05:53:15;;;;;;;8.52;3.05;;;;;;;12.69;100.00;100703.53;5998704;28;20077;-67
2022/10/25 05:56:11;;;;;;;8.37;2.87;;;;;;;12.78;100.00;100712.41;5998748;28;20085;-67
2022/10/25 05:59:13;;;;;;;6.70;2.72;;;;;;;12.79;100.00;100712.25;5998532;28;20061;-66
2022/10/25 06:02:08;;;;;;;9.55;3.25;;;;;;;12.69;100.00;100703.53;5996987;28;20367;-66
2022/10/25 06:05:04;;;;;;;8.60;3.20;;;;;;;12.72;100.00;100713.88;5999013;28;20077;-67
2022/10/25 06:07:59;;;;;;;8.30;2.80;;;;;;;12.80;100.00;100727.19;5998634;28;20033;-67
2022/10/25 06:10:54;;;;;;;5.87;2.63;;;;;;;12.86;100.00;100739.88;5998189;28;20049;-66
2022/10/25 06:13:50;;;;;;;9.43;3.47;;;;;;;12.85;100.00;100732.91;5998503;28;20470;-67
2022/10/25 06:16:45;;;;;;;9.10;2.95;;;;;;;12.81;100.00;100736.88;5996855;28;20345;-67
2022/10/25 06:19:40;;;;;;;8.37;2.63;;;;;;;12.87;100.00;100736.22;5998700;28;20486;-67
2022/10/25 06:22:36;;;;;;;9.57;3.50;;;;;;;12.86;100.00;100742.53;5997920;28;20263;-67
2022/10/25 06:25:31;;;;;;;6.83;2.83;;;;;;;12.87;100.00;100748.69;5998699;28;20081;-67
2022/10/25 06:28:27;;;;;;;9.30;2.80;;;;;;;12.87;100.00;100751.38;5998658;28;20374;-66
2022/10/25 06:31:23;;;;;;;7.07;3.15;;;;;;;12.86;100.00;100747.88;5997903;28;20097;-66
2022/10/25 06:34:19;;;;;;;8.05;2.70;;;;;;;12.90;100.00;100764.34;5998283;28;20038;-67
2022/10/25 06:37:14;;;;;;;9.77;2.80;;;;;;;12.89;100.00;100760.84;5988773;28;20074;-67
2022/10/25 06:40:10;;;;;;;10.52;2.97;;;;;;;12.81;100.00;100752.00;5997779;28;20037;-67
2022/10/25 06:43:05;;;;;;;11.25;3.90;;;;;;;12.93;100.00;100770.22;5998132;28;20383;-67
2022/10/25 06:46:05;;;;;;;11.43;3.47;;;;;;;12.94;100.00;100765.69;5998534;28;20131;-67
2022/10/25 06:49:04;;;;;;;13.95;3.60;;;;;;;12.92;100.00;100778.34;5997972;28;20426;-67
2022/10/25 06:51:59;;;;;;;8.40;3.55;;;;;;;12.88;100.00;100779.66;5997667;28;20422;-68
2022/10/25 06:54:54;;;;;;;8.80;3.20;;;;;;;12.83;100.00;100780.13;6001765;28;20034;-68
2022/10/25 06:57:50;;;;;;;7.67;3.40;;;;;;;12.79;100.00;100778.78;6002574;28;20031;-67
2022/10/25 07:00:45;;;;;;;6.15;3.13;;;;;;;12.68;100.00;100770.22;6001455;28;20082;-68
2022/10/25 07:03:41;;;;;;;10.70;4.03;;;;;;;12.63;100.00;100770.72;6002527;28;20450;-67
2022/10/25 07:06:36;;;;;;;11.98;3.60;;;;;;;12.65;100.00;100776.69;6001965;28;20062;-67
2022/10/25 07:09:32;;;;;;;12.77;3.50;;;;;;;12.71;100.00;100788.53;5995526;28;20031;-67
2022/10/25 07:12:28;;;;;;;9.17;3.67;;;;;;;12.63;100.00;100781.34;6001788;28;20321;-67
2022/10/25 07:15:23;;;;;;;10.70;3.63;;;;;;;12.73;100.00;100803.34;6002505;28;20670;-67
2022/10/25 07:18:19;;;;;;;9.40;3.33;;;;;;;12.68;100.00;100792.34;6002540;28;20066;-68
2022/10/25 07:21:22;;;;;;;11.93;3.70;;;;;;;12.65;100.00;100792.66;6001573;28;20082;-67
2022/10/25 07:24:17;;;;;;;7.03;3.83;;;;;;;12.80;100.00;100811.56;6002005;28;20030;-67
2022/10/25 07:27:12;;;;;;;5.53;3.23;;;;;;;12.76;100.00;100792.41;6001944;28;20125;-67
2022/10/25 07:30:08;;;;;;;12.47;3.93;;;;;;;12.88;100.00;100809.75;6001466;28;20374;-68
2022/10/25 07:33:03;;;;;;;6.25;3.45;;;;;;;12.92;100.00;100795.13;6001681;28;20043;-67
2022/10/25 07:35:59;;;;;;;18.27;4.23;;;;;;;13.02;100.00;100811.81;6001888;28;20031;-67
2022/10/25 07:38:55;;;;;;;9.40;2.90;;;;;;;13.01;100.00;100812.00;6001564;28;20054;-68
2022/10/25 07:41:52;;;;;;;9.95;3.65;;;;;;;13.11;100.00;100824.22;6001314;28;20270;-68
2022/10/25 07:44:48;;;;;;;8.30;3.42;;;;;;;13.11;100.00;100826.03;6002077;28;20038;-68
2022/10/25 07:47:43;;;;;;;6.83;3.07;;;;;;;13.07;100.00;100827.38;6001545;28;20041;-68
2022/10/25 07:50:38;;;;;;;11.50;3.87;;;;;;;13.14;100.00;100828.38;6000662;28;20270;-68
2022/10/25 07:53:34;;;;;;;12.47;3.17;;;;;;;13.15;100.00;100823.91;6001034;28;20133;-68
2022/10/25 07:56:29;;;;;;;13.57;3.53;;;;;;;13.23;100.00;100845.25;6000446;28;20550;-68
2022/10/25 07:59:24;;;;;;;9.88;3.13;;;;;;;13.30;100.00;100847.09;6001225;28;20043;-68
2022/10/25 08:02:20;;;;;;;7.40;3.43;;;;;;;13.40;100.00;100844.31;6000024;28;20107;-67
2022/10/25 08:05:15;;;;;;;10.27;3.58;;;;;;;13.40;100.00;100839.81;6000977;28;20293;-68
2022/10/25 08:08:11;;;;;;;9.87;3.07;;;;;;;13.44;100.00;100838.50;6001093;28;20027;-68
2022/10/25 08:11:07;;;;;;;6.22;2.70;;;;;;;13.44;100.00;100843.81;6000048;28;20041;-67
2022/10/25 08:14:02;;;;;;;7.18;2.63;;;;;;;13.59;100.00;100836.03;6001159;28;20030;-67
2022/10/25 08:16:57;;;;;;;7.53;3.00;;;;;;;13.76;100.00;100853.75;6000778;28;20030;-67
2022/10/25 08:19:53;;;;;;;13.93;3.58;;;;;;;13.89;100.00;100859.44;6000866;28;20130;-68
2022/10/25 08:22:48;;;;;;;9.17;3.30;;;;;;;14.02;100.00;100854.44;6000116;28;20035;-68
2022/10/25 08:25:43;;;;;;;10.27;3.40;;;;;;;14.00;100.00;100860.94;6000525;28;20150;-67
2022/10/25 08:28:39;;;;;;;7.87;3.00;;;;;;;13.98;100.00;100850.44;6000467;28;20061;-67
2022/10/25 08:31:35;;;;;;;7.43;2.73;;;;;;;13.95;99.80;100857.94;5999989;28;20298;-67
2022/10/25 08:34:30;;;;;;;6.57;2.95;;;;;;;13.98;100.00;100858.47;6000682;28;20031;-67
2022/10/25 08:37:25;;;;;;;7.70;3.60;;;;;;;14.02;99.70;100881.09;6000160;28;20030;-68
2022/10/25 08:40:30;;;;;;;7.43;3.03;;;;;;;14.08;100.00;100884.94;5999627;28;20469;-68
2022/10/25 08:44:04;;;;;;;7.05;3.00;;;;;;;14.18;99.10;100875.00;5998932;28;20031;-67
2022/10/25 08:47:19;;;;;;;6.93;3.45;;;;;;;14.29;98.64;100880.00;6000202;28;20463;-68
2022/10/25 08:50:44;;;;;;;9.02;3.30;;;;;;;14.37;97.80;100890.72;5999161;28;20038;-68
2022/10/25 08:53:47;;;;;;;10.50;3.17;;;;;;;14.34;97.17;100876.84;6010653;28;20047;-68
2022/10/25 08:56:42;;;;;;;7.15;2.80;;;;;;;14.36;96.27;100866.84;6000007;28;20042;-67
2022/10/25 08:59:40;;;;;;;7.65;3.40;;;;;;;14.71;97.16;100898.53;5998703;28;20030;-67
2022/10/25 09:02:43;;;;;;;6.70;3.00;;;;;;;14.83;95.20;100902.53;5981363;28;20031;-68
2022/10/25 09:05:41;;;;;;;10.35;3.80;;;;;;;14.83;94.49;100907.88;5998493;28;20034;-68
2022/10/25 09:08:58;;;;;;;14.02;3.40;;;;;;;14.76;93.62;100901.53;5998283;28;20054;-68
2022/10/25 09:12:01;;;;;;;9.13;4.07;;;;;;;14.67;94.00;100903.38;5997999;28;20114;-68
2022/10/25 09:15:22;;;;;;;6.75;3.80;;;;;;;14.67;93.61;100907.88;5991660;28;20046;-67
2022/10/25 09:18:21;;;;;;;7.75;3.15;;;;;;;14.77;93.39;100914.72;5996977;28;20042;-67
2022/10/25 09:21:20;;;;;;;8.10;3.42;;;;;;;14.86;92.69;100918.22;5997483;28;20386;-67
2022/10/25 09:24:45;;;;;;;8.18;3.65;;;;;;;14.78;92.27;100918.22;5999257;28;20434;-68
2022/10/25 09:27:50;;;;;;;8.25;3.22;;;;;;;14.78;92.21;100929.72;5999155;28;20035;-68
2022/10/25 09:30:45;;;;;;;8.57;3.55;;;;;;;14.90;92.19;100922.22;5998650;28;20081;-67
2022/10/25 09:33:44;;;;;;;9.80;2.80;;;;;;;14.76;90.97;100914.88;5997674;28;20023;-67
2022/10/25 09:36:43;;;;;;;5.78;3.17;;;;;;;14.69;90.62;100922.72;5998896;28;20034;-67
2022/10/25 09:39:57;;;;;;;10.27;3.90;;;;;;;14.64;92.55;100934.91;5978720;28;20355;-67
2022/10/25 09:42:59;;;;;;;6.82;3.20;;;;;;;14.54;92.94;100931.59;5984316;28;20483;-68
2022/10/25 09:45:59;;;;;;;8.82;4.05;;;;;;;14.41;93.64;100936.56;5997551;28;20390;-67
2022/10/25 09:49:03;;;;;;;9.30;3.70;;;;;;;14.41;93.48;100937.38;5997493;28;20050;-67
2022/10/25 09:52:17;;;;;;;7.82;3.50;;;;;;;14.59;94.00;100940.75;5997935;28;20039;-67
2022/10/25 09:55:21;;;;;;;5.65;3.72;;;;;;;14.68;92.21;100929.06;5997275;28;20457;-67
2022/10/25 09:58:33;;;;;;;11.32;3.47;;;;;;;15.00;92.27;100941.53;5998944;28;20074;-67
2022/10/25 10:01:28;;;;;;;9.07;3.50;;;;;;;15.23;91.18;100920.31;5996550;28;20467;-67
2022/10/25 10:04:36;;;;;;;7.47;2.93;;;;;;;15.59;89.98;100926.06;5999043;28;20139;-68
2022/10/25 10:07:34;;;;;;;10.80;3.40;;;;;;;15.44;86.24;100939.28;5998619;28;20831;-67
2022/10/25 10:10:33;;;;;;;12.48;3.13;;;;;;;15.16;87.87;100944.22;5998346;28;20089;-67
2022/10/25 10:13:34;;;;;;;8.38;3.88;;;;;;;14.81;88.33;100945.41;5998045;28;20058;-67
2022/10/25 10:16:34;;;;;;;8.32;3.28;;;;;;;14.54;89.51;100937.72;5997104;28;20658;-68
2022/10/25 10:19:29;;;;;;;7.97;3.25;;;;;;;14.53;90.55;100956.59;5996971;28;20108;-67
2022/10/25 10:22:25;;;;;;;11.75;3.83;;;;;;;14.48;91.97;100958.94;5996945;28;20104;-68
2022/10/25 10:25:23;;;;;;;7.37;3.80;;;;;;;14.43;92.52;100955.91;5998653;28;20038;-67
2022/10/25 10:28:18;;;;;;;5.95;3.55;;;;;;;14.38;93.41;100939.56;5997962;28;20030;-67
2022/10/25 10:31:15;;;;;;;6.67;3.67;;;;;;;14.48;92.69;100948.25;6001685;28;20097;-67
2022/10/25 10:34:30;;;;;;;7.40;3.20;;;;;;;14.56;90.90;100949.09;6001915;28;20282;-67
2022/10/25 10:37:26;;;;;;;9.40;3.20;;;;;;;14.47;90.34;100943.91;5998656;28;20073;-67
2022/10/25 10:40:23;;;;;;;4.13;2.40;;;;;;;14.63;89.02;100949.25;6002338;28;20034;-67
2022/10/25 10:43:28;;;;;;;5.85;2.53;;;;;;;14.65;88.26;100949.91;6002758;28;20027;-67
2022/10/25 10:46:24;;;;;;;8.38;2.60;;;;;;;14.64;88.49;100950.94;6017945;28;20122;-67
2022/10/25 10:49:22;;;;;;;4.55;2.40;;;;;;;14.62;88.04;100942.25;6002594;28;20367;-67
2022/10/25 10:52:26;;;;;;;4.90;2.50;;;;;;;15.10;87.03;100928.88;6000894;28;20455;-67
2022/10/25 10:55:29;;;;;;;3.80;1.88;;;;;;;15.44;83.23;100945.47;6002514;28;20035;-67
2022/10/25 10:58:30;;;;;;;5.38;1.88;;;;;;;15.74;81.65;100956.41;6001521;28;20125;-67
2022/10/25 11:01:32;;;;;;;3.20;1.73;;;;;;;16.06;78.83;100961.63;6001593;28;20058;-67
2022/10/25 11:04:28;;;;;;;4.03;2.10;;;;;;;15.97;78.56;100957.34;6002389;28;20038;-67
2022/10/25 11:07:28;;;;;;;6.32;1.90;;;;;;;16.02;77.73;100965.66;6002309;28;20387;-67
2022/10/25 11:10:32;;;;;;;3.65;2.00;;;;;;;15.87;78.15;100972.78;6001248;28;20065;-67
2022/10/25 11:13:27;;;;;;;6.25;2.47;;;;;;;15.67;79.14;100968.81;6000946;28;20469;-67
2022/10/25 11:16:34;;;;;;;7.65;2.22;;;;;;;15.76;79.50;100973.16;6000875;28;20037;-67
2022/10/25 11:20:12;;;;;;;6.95;2.28;;;;;;;15.69;78.51;100974.81;6002294;28;20681;-67
2022/10/25 11:23:28;;;;;;;3.42;2.30;;;;;;;15.70;78.31;100990.72;6000982;28;20469;-67
2022/10/25 11:26:48;;;;;;;4.55;2.08;;;;;;;15.77;78.43;100989.00;6001410;28;20117;-67
2022/10/25 11:30:12;;;;;;;5.78;1.90;;;;;;;15.92;77.71;100997.16;6000524;28;20615;-67
2022/10/25 11:33:14;;;;;;;6.72;1.90;;;;;;;15.91;78.84;100992.78;6000189;28;20054;-67
2022/10/25 11:36:18;;;;;;;11.27;3.33;;;;;;;16.14;78.95;100996.38;6001325;28;20102;-67
2022/10/25 11:39:22;;;;;;;5.70;2.25;;;;;;;16.44;76.53;100995.50;6000897;28;20794;-67
2022/10/25 11:42:27;;;;;;;3.28;1.65;;;;;;;16.73;73.74;100988.66;5991832;28;20509;-67
2022/10/25 11:45:43;;;;;;;12.82;4.45;;;;;;;16.69;74.65;100973.97;5999870;28;20042;-67
2022/10/25 11:49:00;;;;;;;9.18;2.28;;;;;;;17.03;74.07;100996.63;5999891;28;20062;-67
2022/10/25 11:52:21;;;;;;;5.97;2.90;;;;;;;16.76;75.48;100996.34;6000232;28;20042;-67
2022/10/25 11:55:24;;;;;;;4.40;2.03;;;;;;;16.69;75.23;100992.72;6015793;28;20035;-67
2022/10/25 11:58:43;;;;;;;3.85;1.77;;;;;;;16.59;75.74;100996.47;5998949;28;20035;-67
2022/10/25 12:01:57;;;;;;;7.68;2.60;;;;;;;16.66;76.90;100997.41;6000330;28;20031;-67
2022/10/25 12:05:17;;;;;;;5.28;2.35;;;;;;;16.80;75.96;101003.00;6000967;28;20034;-67
2022/10/25 12:08:27;;;;;;;7.00;2.10;;;;;;;16.69;75.41;100990.06;5999288;28;20535;-67
2022/10/25 12:11:29;;;;;;;6.20;2.03;;;;;;;16.69;75.30;100990.06;6000362;28;20038;-67
2022/10/25 12:14:32;;;;;;;9.55;2.42;;;;;;;16.56;75.36;100996.81;5998763;28;20042;-67
2022/10/25 12:17:30;;;;;;;3.85;2.10;;;;;;;16.48;75.30;101006.72;6000856;28;20034;-67
2022/10/25 12:20:27;;;;;;;6.13;2.40;;;;;;;16.27;75.85;101001.16;6000234;28;20034;-67
2022/10/25 12:23:24;;;;;;;5.30;4.03;;;;;;;16.38;76.52;101014.97;5999583;28;20438;-67
2022/10/25 12:26:27;;;;;;;6.95;2.90;;;;;;;16.33;76.85;101011.16;5999500;28;20033;-67
2022/10/25 12:29:38;;;;;;;5.05;2.90;;;;;;;16.22;77.88;101004.38;6000589;28;20064;-67
2022/10/25 12:32:41;;;;;;;6.80;2.70;;;;;;;16.22;78.23;101025.78;5998845;28;20045;-67
2022/10/25 12:35:42;;;;;;;5.25;2.75;;;;;;;16.16;77.21;101021.13;5995889;28;20109;-67
2022/10/25 12:38:39;;;;;;;13.35;3.63;;;;;;;16.00;77.51;101023.88;6000841;28;20066;-67
2022/10/25 12:41:36;;;;;;;3.85;2.35;;;;;;;15.90;77.56;101020.53;5999757;28;20039;-67
2022/10/25 12:44:46;;;;;;;6.47;2.92;;;;;;;15.62;78.03;101019.31;6000557;28;20031;-67
2022/10/25 12:48:22;;;;;;;5.50;2.35;;;;;;;15.57;77.80;101029.69;6000016;28;20039;-67
2022/10/25 12:51:36;;;;;;;4.55;2.38;;;;;;;15.36;77.65;101022.16;5999438;28;20113;-67
2022/10/25 12:54:53;;;;;;;5.32;2.13;;;;;;;15.25;77.62;101028.69;5999992;28;20035;-67
2022/10/25 12:58:13;;;;;;;7.47;2.50;;;;;;;15.13;78.97;101027.38;5998841;28;20034;-67
2022/10/25 13:01:26;;;;;;;;;;;;;;;15.00;79.07;101028.88;5999803;28;20034;-67
2022/10/25 13:04:34;;;;;;;10.52;6.13;;;;;;;15.12;78.61;101023.03;5998881;28;20366;-67
2022/10/25 13:07:31;;;;;;;5.97;3.05;;;;;;;15.02;78.16;101018.84;5999921;28;20034;-67
2022/10/25 13:10:31;;;;;;;6.63;2.63;;;;;;;15.03;77.97;101026.69;5999121;28;20033;-67
2022/10/25 13:13:29;;;;;;;6.28;2.50;;;;;;;14.94;79.19;101027.69;5998687;28;20043;-67
2022/10/25 13:16:28;;;;;;;7.30;2.35;;;;;;;15.05;79.50;101019.38;5999670;28;20046;-67
2022/10/25 13:19:28;;;;;;;7.45;1.80;;;;;;;15.16;78.01;101015.50;5999267;28;20037;-67
2022/10/25 13:22:39;;;;;;;4.35;1.58;;;;;;;15.39;77.37;101022.66;5997703;28;20058;-67
2022/10/25 13:25:46;;;;;;;4.00;2.30;;;;;;;15.49;76.67;101026.00;5999312;28;20097;-67
2022/10/25 13:28:46;;;;;;;5.75;2.20;;;;;;;15.57;76.42;101024.34;5999167;28;20035;-67
2022/10/25 13:31:46;;;;;;;8.90;2.40;;;;;;;15.59;75.62;101027.66;5998579;28;20054;-67
2022/10/25 13:34:41;;;;;;;5.65;2.03;;;;;;;15.42;76.28;101013.47;5999518;28;20058;-67
2022/10/25 13:37:38;;;;;;;4.10;2.00;;;;;;;15.45;76.98;101032.69;5998749;28;20090;-67
2022/10/25 13:40:36;;;;;;;5.63;2.45;;;;;;;15.55;76.58;101037.00;5997450;28;20144;-67
2022/10/25 13:43:31;;;;;;;6.15;2.53;;;;;;;15.54;76.51;101024.69;5999441;28;20085;-67
2022/10/25 13:46:40;;;;;;;6.57;2.30;;;;;;;15.59;76.69;101039.19;5998976;28;20035;-67
2022/10/25 13:49:40;;;;;;;4.05;2.20;;;;;;;15.58;76.55;101037.53;5999062;28;20113;-67
2022/10/25 13:52:35;;;;;;;5.00;2.00;;;;;;;15.46;76.67;101023.66;5997800;28;20597;-67
2022/10/25 13:55:45;;;;;;;5.00;1.88;;;;;;;15.37;76.54;101024.69;5997530;28;20073;-67